This is the latest recevied weather packets stored in our database for station/object WX4TAZ. If no packets are shown the sender has not sent any weather packets the latest 10 day(s).
| Time | Temp. | Humidity | Pressure | Rain* | Wind** | Luminosity | Snow |
|---|---|---|---|---|---|---|---|
| 1777845664 | 23.89° C | 18% | 1007.8 hPa | 0 mm | - | - | - |
| 1777842064 | 23.33° C | 16% | 1008.6 hPa | 0 mm | - | - | - |
| 1777829163 | 20.56° C | 23% | 1010.7 hPa | 0 mm | - | - | - |
| 1777809963 | 12.78° C | 34% | 1009.6 hPa | 0 mm | - | - | - |
| 1777804263 | 12.22° C | 35% | 1010 hPa | 0 mm | - | - | - |
| 1777794063 | 12.78° C | 32% | 1009.7 hPa | 0 mm | - | - | - |
| 1777792863 | 13.33° C | 31% | 1009.9 hPa | 0 mm | - | - | - |
| 1777787762 | 13.33° C | 29% | 1010.9 hPa | 0 mm | - | - | - |
| 1777786263 | 13.89° C | 29% | 1011.2 hPa | 0 mm | - | - | - |
| 1777777864 | 13.89° C | 27% | 1012.6 hPa | 0 mm | - | - | - |
| 1777772463 | 15° C | 26% | 1013.5 hPa | 0 mm | - | - | - |
| 1777770363 | 16.67° C | 21% | 1013.8 hPa | 0 mm | - | - | - |
| 1777763763 | 18.89° C | 14% | 1014.7 hPa | 0 mm | - | - | - |
| 1777753864 | 17.22° C | 17% | 1016.9 hPa | 0 mm | - | - | - |
| 1777751163 | 17.22° C | 19% | 1017.7 hPa | 0 mm | - | - | - |
| 1777736763 | 12.22° C | 28% | 1020.4 hPa | 0 mm | - | - | - |
| 1777733163 | 10.56° C | 31% | 1020.6 hPa | 0 mm | - | - | - |
| 1777730163 | 8.89° C | 41% | 1020.7 hPa | 0 mm | - | - | - |
| 1777728363 | 8.89° C | 43% | 1020.7 hPa | 0 mm | - | - | - |
| 1777717864 | 1.67° C | 55% | 1020 hPa | 0 mm | - | - | - |
| 1777714863 | 2.22° C | 50% | 1019.7 hPa | 0 mm | - | - | - |
| 1777684263 | 10.56° C | 26% | 1017.9 hPa | 0 mm | - | - | - |
| 1777679163 | 12.78° C | 23% | 1017.2 hPa | 0 mm | - | - | - |
| 1777676764 | 13.33° C | 23% | 1017.1 hPa | 0 mm | - | - | - |
| 1777656663 | 11.67° C | 36% | 1017.6 hPa | 0 mm | - | - | - |
* Rain latest hour (hover to see other rain measurements)
** Current wind speed in m/s (hover to see current wind gust speed)